createdAt,value
2018-03-06T00:00:03.326Z,20.15
2018-03-06T00:01:05.876Z,20.15
2018-03-06T00:02:08.424Z,20.14
2018-03-06T00:03:10.949Z,20.12
2018-03-06T00:04:13.492Z,20.12
2018-03-06T00:05:16.048Z,20.11
2018-03-06T00:06:18.600Z,20.12
2018-03-06T00:07:21.146Z,20.10
2018-03-06T00:08:23.713Z,20.10
2018-03-06T00:09:26.235Z,20.10
2018-03-06T00:10:28.784Z,20.10
2018-03-06T00:11:31.318Z,20.09
2018-03-06T00:12:33.877Z,20.08
2018-03-06T00:13:36.432Z,20.08
2018-03-06T00:14:38.970Z,20.06
2018-03-06T00:15:41.494Z,20.05
2018-03-06T00:16:44.013Z,20.05
2018-03-06T00:17:46.555Z,20.04
2018-03-06T00:18:49.120Z,20.05
2018-03-06T00:19:51.664Z,20.04
2018-03-06T00:20:54.187Z,20.05
2018-03-06T00:21:56.731Z,20.04
2018-03-06T00:22:59.271Z,20.03
2018-03-06T00:24:01.824Z,20.05
2018-03-06T00:25:04.358Z,20.04
2018-03-06T00:26:06.893Z,20.04
2018-03-06T00:27:09.457Z,20.03
2018-03-06T00:28:11.997Z,20.03
2018-03-06T00:29:14.542Z,20.03
2018-03-06T00:30:17.081Z,20.03
2018-03-06T00:31:19.630Z,20.02
2018-03-06T00:32:22.170Z,20.02
2018-03-06T00:33:24.720Z,20.02
2018-03-06T00:34:27.264Z,20.02
2018-03-06T00:35:29.827Z,20.01
2018-03-06T00:36:32.357Z,20.03
2018-03-06T00:37:34.882Z,20.05
2018-03-06T00:38:37.942Z,20.04
2018-03-06T00:39:40.477Z,20.03
2018-03-06T00:40:43.018Z,20.04
2018-03-06T00:41:45.554Z,20.05
2018-03-06T00:42:48.096Z,20.05
2018-03-06T00:43:50.629Z,20.05
2018-03-06T00:44:53.150Z,20.05
2018-03-06T00:45:55.701Z,20.04
2018-03-06T00:46:58.244Z,20.04
2018-03-06T00:48:00.796Z,20.04
2018-03-06T00:49:03.329Z,20.04
2018-03-06T00:50:05.864Z,20.03
2018-03-06T00:51:08.420Z,20.02
2018-03-06T00:52:10.956Z,20.02
2018-03-06T00:53:13.508Z,20.02
2018-03-06T00:54:16.022Z,20.02
2018-03-06T00:55:18.574Z,20.01
2018-03-06T00:56:21.131Z,20.01
2018-03-06T00:57:23.684Z,19.99
2018-03-06T00:58:26.224Z,19.99
2018-03-06T00:59:28.771Z,19.99
2018-03-06T01:00:31.303Z,19.98
2018-03-06T01:01:33.839Z,19.99
2018-03-06T01:02:36.365Z,19.98
2018-03-06T01:03:38.916Z,19.98
2018-03-06T01:04:41.458Z,19.98
2018-03-06T01:05:44.000Z,19.98
2018-03-06T01:06:46.523Z,19.98
2018-03-06T01:07:49.068Z,19.97
2018-03-06T01:08:51.610Z,19.96
2018-03-06T01:09:54.147Z,19.96
2018-03-06T01:10:56.689Z,19.95
2018-03-06T01:11:59.235Z,19.95
2018-03-06T01:13:01.768Z,19.95
2018-03-06T01:14:04.317Z,19.94
2018-03-06T01:15:06.864Z,19.94
2018-03-06T01:16:09.397Z,19.93
2018-03-06T01:17:11.944Z,19.93
2018-03-06T01:18:14.492Z,19.91
2018-03-06T01:19:17.044Z,19.90
2018-03-06T01:20:19.666Z,19.89
2018-03-06T01:21:22.215Z,19.87
2018-03-06T01:22:24.745Z,19.86
2018-03-06T01:23:27.285Z,19.84
2018-03-06T01:24:29.818Z,19.83
2018-03-06T01:25:32.385Z,19.82
2018-03-06T01:26:34.882Z,19.80
2018-03-06T01:27:37.401Z,19.80
2018-03-06T01:28:39.934Z,19.79
2018-03-06T01:29:42.462Z,19.79
2018-03-06T01:30:45.004Z,19.78
2018-03-06T01:31:47.530Z,19.77
2018-03-06T01:32:50.079Z,19.77
2018-03-06T01:33:52.620Z,19.78
2018-03-06T01:34:55.168Z,19.77
2018-03-06T01:35:57.697Z,19.76
2018-03-06T01:37:00.236Z,19.76
2018-03-06T01:38:02.780Z,19.75
2018-03-06T01:39:05.321Z,19.75
2018-03-06T01:40:07.858Z,19.74
2018-03-06T01:41:10.385Z,19.75
2018-03-06T01:42:12.915Z,19.74
2018-03-06T01:43:15.445Z,19.74
2018-03-06T01:44:17.988Z,19.74
2018-03-06T01:45:20.536Z,19.73
2018-03-06T01:46:23.086Z,19.73
2018-03-06T01:47:25.654Z,19.72
2018-03-06T01:48:28.204Z,19.71
2018-03-06T01:49:30.753Z,19.72
2018-03-06T01:50:33.300Z,19.72
2018-03-06T01:53:11.820Z,19.70
2018-03-06T01:54:14.345Z,19.70
2018-03-06T01:55:16.892Z,19.69
2018-03-06T01:56:19.433Z,19.68
2018-03-06T01:57:21.981Z,19.68
2018-03-06T01:58:24.540Z,19.67
2018-03-06T01:59:27.080Z,19.68
2018-03-06T02:00:29.605Z,19.67
2018-03-06T02:01:32.141Z,19.67
2018-03-06T02:02:34.682Z,19.67
2018-03-06T02:03:37.230Z,19.67
2018-03-06T02:04:39.768Z,19.68
2018-03-06T02:05:42.305Z,19.67
2018-03-06T02:06:44.830Z,19.67
2018-03-06T02:07:47.384Z,19.66
2018-03-06T02:08:49.955Z,19.66
2018-03-06T02:09:52.486Z,19.66
2018-03-06T02:10:55.033Z,19.65
2018-03-06T02:11:57.572Z,19.65
2018-03-06T02:13:00.113Z,19.64
2018-03-06T02:14:02.680Z,19.64
2018-03-06T02:15:05.218Z,19.65
2018-03-06T02:16:07.756Z,19.64
2018-03-06T02:17:10.458Z,19.64
2018-03-06T02:18:13.011Z,19.63
2018-03-06T02:19:15.621Z,19.63
2018-03-06T02:20:18.165Z,19.63
2018-03-06T02:21:20.698Z,19.62
2018-03-06T02:22:23.236Z,19.62
2018-03-06T02:23:25.775Z,19.61
2018-03-06T02:24:28.340Z,19.61
2018-03-06T02:25:30.897Z,19.61
2018-03-06T02:26:33.434Z,19.60
2018-03-06T02:27:35.965Z,19.60
2018-03-06T02:28:38.516Z,19.60
2018-03-06T02:29:41.067Z,19.59
2018-03-06T02:30:43.598Z,19.58
2018-03-06T02:31:46.218Z,19.57
2018-03-06T02:32:48.766Z,19.58
2018-03-06T02:33:51.307Z,19.57
2018-03-06T02:34:53.858Z,19.57
2018-03-06T02:35:56.417Z,19.57
2018-03-06T02:36:58.953Z,19.58
2018-03-06T02:38:01.485Z,19.58
2018-03-06T02:39:04.017Z,19.57
2018-03-06T02:40:06.553Z,19.58
2018-03-06T02:41:09.094Z,19.58
2018-03-06T02:42:11.617Z,19.57
2018-03-06T02:43:14.151Z,19.58
2018-03-06T02:44:16.719Z,19.58
2018-03-06T02:45:19.268Z,19.57
2018-03-06T02:46:21.811Z,19.58
2018-03-06T02:47:24.352Z,19.58
2018-03-06T02:48:26.890Z,19.58
2018-03-06T02:49:29.447Z,19.59
2018-03-06T02:50:31.982Z,19.59
2018-03-06T02:51:34.522Z,19.59
2018-03-06T02:52:37.059Z,19.59
2018-03-06T02:53:39.623Z,19.59
2018-03-06T02:54:42.161Z,19.59
2018-03-06T02:55:44.690Z,19.59
2018-03-06T02:56:47.251Z,19.59
2018-03-06T02:57:49.804Z,19.58
2018-03-06T02:58:52.356Z,19.58
2018-03-06T02:59:54.931Z,19.57
2018-03-06T03:00:57.488Z,19.58
2018-03-06T03:02:00.031Z,19.56
2018-03-06T03:03:02.576Z,19.55
2018-03-06T03:04:05.114Z,19.56
2018-03-06T03:05:07.675Z,19.55
2018-03-06T03:06:10.211Z,19.55
2018-03-06T03:07:12.742Z,19.55
2018-03-06T03:08:15.265Z,19.54
2018-03-06T03:09:17.807Z,19.54
2018-03-06T03:10:20.384Z,19.54
2018-03-06T03:11:22.926Z,19.53
2018-03-06T03:12:25.540Z,19.52
2018-03-06T03:13:28.067Z,19.51
2018-03-06T03:14:30.612Z,19.52
2018-03-06T03:15:33.180Z,19.51
2018-03-06T03:16:35.720Z,19.51
2018-03-06T03:17:38.258Z,19.50
2018-03-06T03:18:40.816Z,19.50
2018-03-06T03:19:43.352Z,19.50
2018-03-06T03:20:45.889Z,19.49
2018-03-06T03:21:48.430Z,19.49
2018-03-06T03:22:50.978Z,19.48
2018-03-06T03:23:53.507Z,19.48
2018-03-06T03:24:56.033Z,19.47
2018-03-06T03:25:58.579Z,19.47
2018-03-06T03:27:01.132Z,19.48
2018-03-06T03:28:03.654Z,19.48
2018-03-06T03:29:06.191Z,19.48
2018-03-06T03:30:08.726Z,19.49
2018-03-06T03:31:11.261Z,19.49
2018-03-06T03:32:13.808Z,19.48
2018-03-06T03:33:16.381Z,19.48
2018-03-06T03:34:18.910Z,19.48
2018-03-06T03:35:21.480Z,19.49
2018-03-06T03:36:24.018Z,19.49
2018-03-06T03:37:26.565Z,19.47
2018-03-06T03:38:29.097Z,19.47
2018-03-06T03:39:31.642Z,19.46
2018-03-06T03:40:34.191Z,19.45
2018-03-06T03:41:36.721Z,19.43
2018-03-06T03:42:39.273Z,19.42
2018-03-06T03:43:42.197Z,19.41
2018-03-06T03:44:44.764Z,19.42
2018-03-06T03:45:47.314Z,19.41
2018-03-06T03:46:49.857Z,19.40
2018-03-06T03:47:52.393Z,19.40
2018-03-06T03:48:54.921Z,19.39
2018-03-06T03:49:57.452Z,19.39
2018-03-06T03:51:00.003Z,19.37
2018-03-06T03:52:02.551Z,19.36
2018-03-06T03:53:05.105Z,19.37
2018-03-06T03:54:07.633Z,19.35
2018-03-06T03:55:10.192Z,19.35
2018-03-06T03:56:12.788Z,19.35
2018-03-06T03:57:15.327Z,19.36
2018-03-06T03:58:17.901Z,19.38
2018-03-06T03:59:20.452Z,19.38
2018-03-06T04:00:23.028Z,19.37
2018-03-06T04:01:25.578Z,19.36
2018-03-06T04:02:28.105Z,19.37
2018-03-06T04:03:30.666Z,19.35
2018-03-06T04:04:33.211Z,19.35
2018-03-06T04:05:35.750Z,19.36
2018-03-06T04:06:38.305Z,19.34
2018-03-06T04:07:40.829Z,19.34
2018-03-06T04:08:43.377Z,19.33
2018-03-06T04:09:45.965Z,19.32
2018-03-06T04:10:48.587Z,19.32
2018-03-06T04:11:51.149Z,19.32
2018-03-06T04:12:53.701Z,19.32
2018-03-06T04:13:56.257Z,19.32
2018-03-06T04:14:58.832Z,19.32
2018-03-06T04:16:01.407Z,19.31
2018-03-06T04:17:03.934Z,19.31
2018-03-06T04:18:06.508Z,19.30
2018-03-06T04:19:09.056Z,19.29
2018-03-06T04:20:11.623Z,19.29
2018-03-06T04:21:14.178Z,19.28
2018-03-06T04:22:16.768Z,19.27
2018-03-06T04:23:19.327Z,19.27
2018-03-06T04:24:21.869Z,19.27
2018-03-06T04:25:24.412Z,19.27
2018-03-06T04:26:26.934Z,19.28
2018-03-06T04:27:29.488Z,19.29
2018-03-06T04:28:32.015Z,19.29
2018-03-06T04:29:34.545Z,19.28
2018-03-06T04:30:37.085Z,19.28
2018-03-06T04:31:39.622Z,19.28
2018-03-06T04:32:42.188Z,19.27
2018-03-06T04:33:44.743Z,19.27
2018-03-06T04:34:47.276Z,19.27
2018-03-06T04:35:49.845Z,19.26
2018-03-06T04:36:52.420Z,19.26
2018-03-06T04:37:54.945Z,19.25
2018-03-06T04:38:57.473Z,19.25
2018-03-06T04:40:00.020Z,19.24
2018-03-06T04:41:02.576Z,19.23
2018-03-06T04:42:05.340Z,19.23
2018-03-06T04:43:07.886Z,19.23
2018-03-06T04:44:10.408Z,19.21
2018-03-06T04:45:12.983Z,19.20
2018-03-06T04:46:15.552Z,19.20
2018-03-06T04:47:18.065Z,19.19
2018-03-06T04:48:20.603Z,19.19
2018-03-06T04:49:23.137Z,19.17
2018-03-06T04:50:25.683Z,19.17
2018-03-06T04:51:28.232Z,19.16
2018-03-06T04:52:30.782Z,19.16
2018-03-06T04:53:33.367Z,19.15
2018-03-06T04:54:35.923Z,19.15
2018-03-06T04:55:38.465Z,19.14
2018-03-06T04:56:41.032Z,19.13
2018-03-06T04:57:43.594Z,19.12
2018-03-06T04:58:46.144Z,19.12
2018-03-06T04:59:48.686Z,19.11
2018-03-06T05:00:51.227Z,19.10
2018-03-06T05:01:53.768Z,19.10
2018-03-06T05:02:56.332Z,19.09
2018-03-06T05:03:58.879Z,19.09
2018-03-06T05:05:01.423Z,19.09
2018-03-06T05:06:03.972Z,19.08
2018-03-06T05:07:06.514Z,19.07
2018-03-06T05:08:09.075Z,19.07
2018-03-06T05:09:11.613Z,19.08
2018-03-06T05:10:14.163Z,19.08
2018-03-06T05:11:16.701Z,19.07
2018-03-06T05:12:19.234Z,19.07
2018-03-06T05:13:21.819Z,19.06
2018-03-06T05:14:24.388Z,19.07
2018-03-06T05:15:26.925Z,19.07
2018-03-06T05:16:29.568Z,19.07
2018-03-06T05:17:32.116Z,19.07
2018-03-06T05:18:34.670Z,19.06
2018-03-06T05:19:37.212Z,19.06
2018-03-06T05:20:39.770Z,19.06
2018-03-06T05:21:42.315Z,19.06
2018-03-06T05:22:44.872Z,19.05
2018-03-06T05:23:47.440Z,19.05
2018-03-06T05:24:49.985Z,19.05
2018-03-06T05:25:52.524Z,19.04
2018-03-06T05:26:55.119Z,19.03
2018-03-06T05:27:57.606Z,19.02
2018-03-06T05:29:00.137Z,19.01
2018-03-06T05:30:02.705Z,19.01
2018-03-06T05:31:05.282Z,19.00
2018-03-06T05:32:07.852Z,18.99
2018-03-06T05:33:10.420Z,18.98
2018-03-06T05:34:12.945Z,18.97
2018-03-06T05:35:15.492Z,18.97
2018-03-06T05:36:18.026Z,18.96
2018-03-06T05:37:20.557Z,18.95
2018-03-06T05:38:23.116Z,18.95
2018-03-06T05:39:25.690Z,18.94
2018-03-06T05:40:28.350Z,18.93
2018-03-06T05:41:30.891Z,18.93
2018-03-06T05:42:33.444Z,18.93
2018-03-06T05:43:36.009Z,18.92
2018-03-06T05:44:38.563Z,18.92
2018-03-06T05:45:41.108Z,18.92
2018-03-06T05:46:43.668Z,18.92
2018-03-06T05:47:46.191Z,18.92
2018-03-06T05:48:48.756Z,18.92
2018-03-06T05:49:51.291Z,18.92
2018-03-06T05:50:53.834Z,18.92
2018-03-06T05:51:56.419Z,18.92
2018-03-06T05:52:59.095Z,18.93
2018-03-06T05:54:01.734Z,18.92
2018-03-06T05:55:04.405Z,18.91
2018-03-06T05:56:07.080Z,18.91
2018-03-06T05:57:09.716Z,18.91
2018-03-06T05:58:12.343Z,18.91
2018-03-06T05:59:14.950Z,18.90
2018-03-06T06:00:17.508Z,18.90
2018-03-06T06:01:20.038Z,18.90
2018-03-06T06:02:22.578Z,18.90
2018-03-06T06:03:25.124Z,18.89
2018-03-06T06:04:27.677Z,18.89
2018-03-06T06:05:30.228Z,18.89
2018-03-06T06:06:32.762Z,18.88
2018-03-06T06:07:35.300Z,18.88
2018-03-06T06:08:38.450Z,18.88
2018-03-06T06:09:41.467Z,18.88
2018-03-06T06:10:44.018Z,18.87
2018-03-06T06:11:47.001Z,18.87
2018-03-06T06:12:49.533Z,18.88
2018-03-06T06:13:52.073Z,18.88
2018-03-06T06:14:54.594Z,18.88
2018-03-06T06:15:57.128Z,18.87
2018-03-06T06:16:59.658Z,18.87
2018-03-06T06:18:02.230Z,18.86
2018-03-06T06:19:04.791Z,18.87
2018-03-06T06:20:07.302Z,18.87
2018-03-06T06:21:09.839Z,18.87
2018-03-06T06:22:12.693Z,18.88
2018-03-06T06:23:15.259Z,18.89
2018-03-06T06:24:17.932Z,18.90
2018-03-06T06:25:20.720Z,18.90
2018-03-06T06:26:23.356Z,18.93
2018-03-06T06:27:26.032Z,18.92
2018-03-06T06:28:28.628Z,18.92
2018-03-06T06:29:31.363Z,18.91
2018-03-06T06:30:33.908Z,18.91
2018-03-06T06:31:36.466Z,18.90
2018-03-06T06:32:39.008Z,18.91
2018-03-06T06:33:41.513Z,18.90
2018-03-06T06:34:44.037Z,18.89
2018-03-06T06:35:46.564Z,18.89
2018-03-06T06:36:49.112Z,18.87
2018-03-06T06:37:51.638Z,18.86
2018-03-06T06:38:54.163Z,18.86
2018-03-06T06:39:56.728Z,18.85
2018-03-06T06:40:59.327Z,18.84
2018-03-06T06:42:01.851Z,18.84
2018-03-06T06:43:04.373Z,18.83
2018-03-06T06:44:06.877Z,18.82
2018-03-06T06:45:09.415Z,18.81
2018-03-06T06:46:11.940Z,18.80
2018-03-06T06:47:14.458Z,18.80
2018-03-06T06:48:16.977Z,18.79
2018-03-06T06:49:19.486Z,18.78
2018-03-06T06:50:22.054Z,18.76
2018-03-06T06:51:24.572Z,18.78
2018-03-06T06:52:27.145Z,18.78
2018-03-06T06:53:29.666Z,18.78
2018-03-06T06:54:32.219Z,18.76
2018-03-06T06:55:34.750Z,18.75
2018-03-06T06:56:37.274Z,18.74
2018-03-06T06:57:39.814Z,18.72
2018-03-06T06:58:42.393Z,18.61
2018-03-06T06:59:44.972Z,18.54
2018-03-06T07:00:47.522Z,18.37
2018-03-06T07:01:50.090Z,18.20
2018-03-06T07:02:52.748Z,18.07
2018-03-06T07:03:55.305Z,18.02
2018-03-06T07:04:57.873Z,17.97
2018-03-06T07:06:00.426Z,17.92
2018-03-06T07:07:02.953Z,17.82
2018-03-06T07:08:05.556Z,17.76
2018-03-06T07:09:08.228Z,17.70
2018-03-06T07:10:10.768Z,17.68
2018-03-06T07:11:13.298Z,17.65
2018-03-06T07:12:15.835Z,17.61
2018-03-06T07:13:18.401Z,17.57
2018-03-06T07:14:20.918Z,17.55
2018-03-06T07:15:23.444Z,17.54
2018-03-06T07:16:25.965Z,17.54
2018-03-06T07:17:28.490Z,17.57
2018-03-06T07:18:31.037Z,17.59
2018-03-06T07:19:33.599Z,17.58
2018-03-06T07:20:36.150Z,17.55
2018-03-06T07:21:38.678Z,17.53
2018-03-06T07:22:41.210Z,17.53
2018-03-06T07:23:43.839Z,17.50
2018-03-06T07:24:46.346Z,17.46
2018-03-06T07:25:48.932Z,17.45
2018-03-06T07:26:51.488Z,17.40
2018-03-06T07:27:54.030Z,17.35
2018-03-06T07:28:56.564Z,17.31
2018-03-06T07:29:59.108Z,17.30
2018-03-06T07:31:01.665Z,17.29
2018-03-06T07:32:04.205Z,17.25
2018-03-06T07:33:06.840Z,17.25
2018-03-06T07:34:09.444Z,17.26
2018-03-06T07:35:11.978Z,17.26
2018-03-06T07:36:14.591Z,17.26
2018-03-06T07:37:17.140Z,17.25
2018-03-06T07:38:19.740Z,17.25
2018-03-06T07:39:22.362Z,17.27
2018-03-06T07:40:24.946Z,17.35
2018-03-06T07:41:27.684Z,17.42
2018-03-06T07:42:30.253Z,17.47
2018-03-06T07:43:32.791Z,17.52
2018-03-06T07:44:35.339Z,17.59
2018-03-06T07:45:37.916Z,17.62
2018-03-06T07:46:40.615Z,17.65
2018-03-06T07:47:43.379Z,17.71
2018-03-06T07:48:47.588Z,17.78
2018-03-06T07:49:50.815Z,17.88
2018-03-06T07:50:53.390Z,18.02
2018-03-06T07:51:55.954Z,18.17
2018-03-06T07:52:58.482Z,18.40
2018-03-06T07:54:01.034Z,18.59
2018-03-06T07:55:03.612Z,18.76
2018-03-06T07:56:06.193Z,19.00
2018-03-06T07:57:08.774Z,19.21
2018-03-06T07:58:11.547Z,19.42
2018-03-06T07:59:14.259Z,19.57
2018-03-06T08:00:16.801Z,19.69
2018-03-06T08:01:19.386Z,19.77
2018-03-06T08:02:21.918Z,19.85
2018-03-06T08:03:24.452Z,19.91
2018-03-06T08:04:26.978Z,19.94
2018-03-06T08:05:29.582Z,19.97
2018-03-06T08:06:32.152Z,20.01
2018-03-06T08:07:34.748Z,20.04
2018-03-06T08:08:37.708Z,20.04
2018-03-06T08:09:40.230Z,20.06
2018-03-06T08:10:42.804Z,20.06
2018-03-06T08:11:45.440Z,20.06
2018-03-06T08:12:47.963Z,20.06
2018-03-06T08:13:50.628Z,20.05
2018-03-06T08:14:53.322Z,20.06
2018-03-06T08:15:55.980Z,20.04
2018-03-06T08:16:58.517Z,20.03
2018-03-06T08:18:01.048Z,20.03
2018-03-06T08:19:03.673Z,20.01
2018-03-06T08:20:06.251Z,19.98
2018-03-06T08:21:08.893Z,19.97
2018-03-06T08:22:11.668Z,19.93
2018-03-06T08:23:14.194Z,19.91
2018-03-06T08:24:16.734Z,19.89
2018-03-06T08:25:19.274Z,19.89
2018-03-06T08:26:21.806Z,19.89
2018-03-06T08:27:24.344Z,19.94
2018-03-06T08:28:26.880Z,19.99
2018-03-06T08:29:29.393Z,20.08
2018-03-06T08:30:31.992Z,20.14
2018-03-06T08:31:34.662Z,20.22
2018-03-06T08:32:37.271Z,20.26
2018-03-06T08:33:39.811Z,20.33
2018-03-06T08:34:42.406Z,20.37
2018-03-06T08:35:45.131Z,20.39
2018-03-06T08:36:48.329Z,20.38
2018-03-06T08:37:50.859Z,20.41
2018-03-06T08:38:53.387Z,20.43
2018-03-06T08:39:56.040Z,20.44
2018-03-06T08:40:58.687Z,20.45
2018-03-06T08:42:01.209Z,20.44
2018-03-06T08:43:03.739Z,20.42
2018-03-06T08:44:06.953Z,20.41
2018-03-06T08:45:09.482Z,20.42
2018-03-06T08:46:12.014Z,20.48
2018-03-06T08:47:14.584Z,20.53
2018-03-06T08:48:17.185Z,20.60
2018-03-06T08:49:19.725Z,20.70
2018-03-06T08:50:22.246Z,20.81
2018-03-06T08:51:24.817Z,20.91
2018-03-06T08:52:27.420Z,21.03
2018-03-06T08:53:30.042Z,21.11
2018-03-06T08:54:32.593Z,21.18
2018-03-06T08:55:35.311Z,21.22
2018-03-06T08:56:38.858Z,21.24
2018-03-06T08:57:41.541Z,21.26
2018-03-06T08:58:44.157Z,21.26
2018-03-06T08:59:46.836Z,21.27
2018-03-06T09:00:49.447Z,21.30
2018-03-06T09:01:52.294Z,21.28
2018-03-06T09:02:55.097Z,21.26
2018-03-06T09:03:57.729Z,21.26
2018-03-06T09:05:00.238Z,21.27
2018-03-06T09:06:02.766Z,21.30
2018-03-06T09:07:05.282Z,21.34
2018-03-06T09:08:07.817Z,21.37
2018-03-06T09:09:10.354Z,21.38
2018-03-06T09:10:12.898Z,21.41
2018-03-06T09:11:15.422Z,21.41
2018-03-06T09:12:17.956Z,21.40
2018-03-06T09:13:20.470Z,21.37
2018-03-06T09:14:23.019Z,21.36
2018-03-06T09:15:25.542Z,21.36
2018-03-06T09:16:28.053Z,21.34
2018-03-06T09:17:30.669Z,21.32
2018-03-06T09:18:33.160Z,21.30
2018-03-06T09:19:35.688Z,21.27
2018-03-06T09:20:38.220Z,21.22
2018-03-06T09:21:40.746Z,21.20
2018-03-06T09:22:43.262Z,21.17
2018-03-06T09:23:45.773Z,21.13
2018-03-06T09:24:48.311Z,21.10
2018-03-06T09:25:50.822Z,21.05
2018-03-06T09:26:53.360Z,21.02
2018-03-06T09:27:55.888Z,20.97
2018-03-06T09:28:58.420Z,20.93
2018-03-06T09:30:00.938Z,20.90
2018-03-06T09:31:03.462Z,20.87
2018-03-06T09:32:05.986Z,20.84
2018-03-06T09:33:08.528Z,20.81
2018-03-06T09:34:11.041Z,20.79
2018-03-06T09:35:13.553Z,20.81
2018-03-06T09:36:16.090Z,20.83
2018-03-06T09:37:18.635Z,20.86
2018-03-06T09:38:21.171Z,20.92
2018-03-06T09:39:23.687Z,21.00
2018-03-06T09:40:26.214Z,21.08
2018-03-06T09:41:28.758Z,21.11
2018-03-06T09:42:31.277Z,21.14
2018-03-06T09:43:33.804Z,21.16
2018-03-06T09:44:36.339Z,21.17
2018-03-06T09:45:38.857Z,21.18
2018-03-06T09:46:41.388Z,21.19
2018-03-06T09:47:43.911Z,21.19
2018-03-06T09:48:46.422Z,21.19
2018-03-06T09:49:48.971Z,21.18
2018-03-06T09:50:51.482Z,21.17
2018-03-06T09:51:54.010Z,21.16
2018-03-06T09:52:56.518Z,21.12
2018-03-06T09:53:59.029Z,21.11
2018-03-06T09:55:01.538Z,21.10
2018-03-06T09:56:04.076Z,21.09
2018-03-06T09:57:06.620Z,21.07
2018-03-06T09:58:09.148Z,21.05
2018-03-06T09:59:11.664Z,21.03
2018-03-06T10:00:14.187Z,21.02
2018-03-06T10:01:16.795Z,20.99
2018-03-06T10:02:19.387Z,20.97
2018-03-06T10:03:22.109Z,20.94
2018-03-06T10:04:24.644Z,20.93
2018-03-06T10:05:27.183Z,20.90
2018-03-06T10:06:29.827Z,20.89
2018-03-06T10:07:32.444Z,20.87
2018-03-06T10:08:34.970Z,20.84
2018-03-06T10:09:37.523Z,20.82
2018-03-06T10:10:40.052Z,20.80
2018-03-06T10:11:42.666Z,20.79
2018-03-06T10:12:45.373Z,20.77
2018-03-06T10:13:48.168Z,20.76
2018-03-06T10:14:50.777Z,20.76
2018-03-06T10:15:53.306Z,20.73
2018-03-06T10:16:55.872Z,20.72
2018-03-06T10:17:58.415Z,20.70
2018-03-06T10:19:00.925Z,20.69
2018-03-06T10:20:03.482Z,20.68
2018-03-06T10:21:06.016Z,20.67
2018-03-06T10:22:08.527Z,20.67
2018-03-06T10:23:11.063Z,20.65
2018-03-06T10:24:13.574Z,20.64
2018-03-06T10:25:16.091Z,20.63
2018-03-06T10:26:18.966Z,20.63
2018-03-06T10:27:21.775Z,20.63
2018-03-06T10:28:24.282Z,20.61
2018-03-06T10:29:26.859Z,20.61
2018-03-06T10:30:29.373Z,20.66
2018-03-06T10:31:31.907Z,20.69
2018-03-06T10:32:35.405Z,20.76
2018-03-06T10:33:43.516Z,20.81
2018-03-06T10:35:01.506Z,20.87
2018-03-06T10:36:05.659Z,20.92
2018-03-06T10:38:30.461Z,21.04
2018-03-06T10:39:33.295Z,21.07
2018-03-06T10:40:35.822Z,21.09
2018-03-06T10:41:38.338Z,21.10
2018-03-06T10:42:40.872Z,21.11
2018-03-06T10:43:43.517Z,21.12
2018-03-06T10:44:46.050Z,21.12
2018-03-06T10:45:48.598Z,21.13
2018-03-06T10:46:51.128Z,21.13
2018-03-06T10:47:53.679Z,21.12
2018-03-06T10:48:56.208Z,21.10
2018-03-06T10:49:58.740Z,21.10
2018-03-06T10:51:01.272Z,21.09
2018-03-06T10:52:03.807Z,21.08
2018-03-06T10:53:06.338Z,21.06
2018-03-06T10:54:08.880Z,21.05
2018-03-06T10:55:11.544Z,21.02
2018-03-06T10:56:14.052Z,21.00
2018-03-06T10:57:16.600Z,20.98
2018-03-06T10:58:19.129Z,20.97
2018-03-06T10:59:21.654Z,20.96
2018-03-06T11:00:29.757Z,20.95
2018-03-06T11:01:33.212Z,20.94
2018-03-06T11:02:41.603Z,20.92
2018-03-06T11:03:44.139Z,20.90
2018-03-06T11:04:46.662Z,20.90
2018-03-06T11:05:49.187Z,20.89
2018-03-06T11:06:51.719Z,20.87
2018-03-06T11:07:54.241Z,20.86
2018-03-06T11:08:56.789Z,20.85
2018-03-06T11:09:59.305Z,20.84
2018-03-06T11:11:01.822Z,20.82
2018-03-06T11:12:04.334Z,20.82
2018-03-06T11:13:06.856Z,20.81
2018-03-06T11:14:09.456Z,20.80
2018-03-06T11:15:11.973Z,20.79
2018-03-06T11:16:14.523Z,20.78
2018-03-06T11:17:17.038Z,20.77
2018-03-06T11:18:19.587Z,20.76
2018-03-06T11:19:22.144Z,20.75
2018-03-06T11:20:24.742Z,20.73
2018-03-06T11:21:27.272Z,20.72
2018-03-06T11:22:29.804Z,20.72
2018-03-06T11:23:32.345Z,20.71
2018-03-06T11:24:34.887Z,20.70
2018-03-06T11:25:37.409Z,20.70
2018-03-06T11:26:39.930Z,20.69
2018-03-06T11:27:42.464Z,20.68
2018-03-06T11:28:45.506Z,20.67
2018-03-06T11:29:48.093Z,20.66
2018-03-06T11:30:50.700Z,20.65
2018-03-06T11:31:53.252Z,20.64
2018-03-06T11:32:55.784Z,20.64
2018-03-06T11:33:58.324Z,20.63
2018-03-06T11:35:00.965Z,20.62
2018-03-06T11:36:03.527Z,20.62
2018-03-06T11:37:06.107Z,20.60
2018-03-06T11:38:08.640Z,20.58
2018-03-06T11:39:11.153Z,20.58
2018-03-06T11:40:13.719Z,20.57
2018-03-06T11:41:16.254Z,20.56
2018-03-06T11:42:18.789Z,20.55
2018-03-06T11:43:21.338Z,20.54
2018-03-06T11:44:23.857Z,20.53
2018-03-06T11:45:26.394Z,20.53
2018-03-06T11:46:28.906Z,20.54
2018-03-06T11:47:31.436Z,20.58
2018-03-06T11:48:33.953Z,20.64
2018-03-06T11:49:36.504Z,20.68
2018-03-06T11:50:39.046Z,20.76
2018-03-06T11:51:41.562Z,20.79
2018-03-06T11:52:44.096Z,20.82
2018-03-06T11:53:46.612Z,20.83
2018-03-06T11:54:49.156Z,20.83
2018-03-06T11:55:51.694Z,20.82
2018-03-06T11:56:54.231Z,20.78
2018-03-06T11:57:56.855Z,20.77
2018-03-06T11:58:59.406Z,20.75
2018-03-06T12:00:01.953Z,20.74
2018-03-06T12:01:04.675Z,20.72
2018-03-06T12:02:07.217Z,20.74
2018-03-06T12:03:09.785Z,20.74
2018-03-06T12:04:12.312Z,20.76
2018-03-06T12:05:14.845Z,20.75
2018-03-06T12:06:17.524Z,20.74
2018-03-06T12:07:20.055Z,20.75
2018-03-06T12:08:22.594Z,20.74
2018-03-06T12:09:25.134Z,20.71
2018-03-06T12:10:27.667Z,20.69
2018-03-06T12:11:30.205Z,20.69
2018-03-06T12:12:32.719Z,20.67
2018-03-06T12:13:35.238Z,20.65
2018-03-06T12:14:37.773Z,20.64
2018-03-06T12:15:40.304Z,20.63
2018-03-06T12:16:42.962Z,20.61
2018-03-06T12:17:45.478Z,20.60
2018-03-06T12:18:48.015Z,20.59
2018-03-06T12:19:50.530Z,20.58
2018-03-06T12:20:53.046Z,20.57
2018-03-06T12:21:55.596Z,20.55
2018-03-06T12:22:58.126Z,20.52
2018-03-06T12:24:00.662Z,20.51
2018-03-06T12:25:03.195Z,20.50
2018-03-06T12:26:05.714Z,20.49
2018-03-06T12:27:08.253Z,20.49
2018-03-06T12:28:10.784Z,20.47
2018-03-06T12:29:13.308Z,20.46
2018-03-06T12:30:15.846Z,20.45
2018-03-06T12:31:18.371Z,20.47
2018-03-06T12:32:20.911Z,20.50
2018-03-06T12:33:23.494Z,20.55
2018-03-06T12:34:26.049Z,20.61
2018-03-06T12:35:28.570Z,20.67
2018-03-06T12:36:31.102Z,20.72
2018-03-06T12:37:33.644Z,20.77
2018-03-06T12:38:36.176Z,20.84
2018-03-06T12:39:38.707Z,20.86
2018-03-06T12:40:41.225Z,20.89
2018-03-06T12:41:43.760Z,20.91
2018-03-06T12:42:46.306Z,20.94
2018-03-06T12:43:48.828Z,20.93
2018-03-06T12:44:51.363Z,20.94
2018-03-06T12:45:53.916Z,20.93
2018-03-06T12:46:56.450Z,20.94
2018-03-06T12:47:59.004Z,20.93
2018-03-06T12:49:01.541Z,20.92
2018-03-06T12:50:04.606Z,20.92
2018-03-06T12:51:07.206Z,20.91
2018-03-06T12:52:10.374Z,20.89
2018-03-06T12:53:14.586Z,20.87
2018-03-06T12:54:18.305Z,20.86
2018-03-06T12:55:22.033Z,20.83
2018-03-06T12:56:24.626Z,20.81
2018-03-06T12:57:27.547Z,20.80
2018-03-06T12:58:31.420Z,20.78
2018-03-06T12:59:34.086Z,20.75
2018-03-06T13:00:36.844Z,20.73
2018-03-06T13:01:39.372Z,20.72
2018-03-06T13:02:42.061Z,20.70
2018-03-06T13:03:44.797Z,20.69
2018-03-06T13:04:48.126Z,20.67
2018-03-06T13:05:50.722Z,20.65
2018-03-06T13:06:53.257Z,20.65
2018-03-06T13:07:55.824Z,20.63
2018-03-06T13:08:58.370Z,20.62
2018-03-06T13:10:00.997Z,20.60
2018-03-06T13:11:05.329Z,20.59
2018-03-06T13:13:28.053Z,20.56
2018-03-06T13:14:31.064Z,20.54
2018-03-06T13:15:33.661Z,20.52
2018-03-06T13:16:55.561Z,20.51
2018-03-06T13:17:58.738Z,20.50
2018-03-06T13:19:07.270Z,20.52
2018-03-06T13:20:18.866Z,20.56
2018-03-06T13:21:21.419Z,20.64
2018-03-06T13:22:31.593Z,20.69
2018-03-06T13:23:36.525Z,20.79
2018-03-06T13:24:39.141Z,20.85
2018-03-06T13:25:41.706Z,20.92
2018-03-06T13:26:44.304Z,20.95
2018-03-06T13:27:46.882Z,20.97
2018-03-06T13:28:49.417Z,21.01
2018-03-06T13:29:52.028Z,21.03
2018-03-06T13:30:54.564Z,21.03